sensor_id;sensor_type;location;lat;lon;timestamp;pressure;altitude;pressure_sealevel;temperature;humidity
75650;BME280;64245;51.282;22.494;2023-02-02T00:01:56;98036.41;;;0.19;99.97
75650;BME280;64245;51.282;22.494;2023-02-02T00:04:31;98014.44;;;0.06;100.00
75650;BME280;64245;51.282;22.494;2023-02-02T00:06:57;98035.03;;;0.26;100.00
75650;BME280;64245;51.282;22.494;2023-02-02T00:09:26;98037.16;;;0.21;100.00
75650;BME280;64245;51.282;22.494;2023-02-02T00:11:53;98034.34;;;0.12;100.00
75650;BME280;64245;51.282;22.494;2023-02-02T00:14:19;98013.06;;;0.13;100.00
75650;BME280;64245;51.282;22.494;2023-02-02T00:16:48;98020.09;;;0.25;100.00
75650;BME280;64245;51.282;22.494;2023-02-02T00:19:18;98026.19;;;0.39;100.00
75650;BME280;64245;51.282;22.494;2023-02-02T00:21:44;98022.72;;;0.38;100.00
75650;BME280;64245;51.282;22.494;2023-02-02T00:24:12;98021.41;;;0.44;100.00
75650;BME280;64245;51.282;22.494;2023-02-02T00:26:39;98006.69;;;0.40;100.00
75650;BME280;64245;51.282;22.494;2023-02-02T00:29:07;98020.34;;;0.46;100.00
75650;BME280;64245;51.282;22.494;2023-02-02T00:31:33;98014.88;;;0.37;100.00
75650;BME280;64245;51.282;22.494;2023-02-02T00:33:59;98009.75;;;0.46;100.00
75650;BME280;64245;51.282;22.494;2023-02-02T00:36:25;98013.13;;;0.48;100.00
75650;BME280;64245;51.282;22.494;2023-02-02T00:38:51;98000.41;;;0.53;100.00
75650;BME280;64245;51.282;22.494;2023-02-02T00:41:18;98011.41;;;0.71;100.00
75650;BME280;64245;51.282;22.494;2023-02-02T00:43:44;98005.63;;;0.66;99.81
75650;BME280;64245;51.282;22.494;2023-02-02T00:46:17;97992.34;;;0.55;100.00
75650;BME280;64245;51.282;22.494;2023-02-02T00:48:43;98016.53;;;0.61;100.00
75650;BME280;64245;51.282;22.494;2023-02-02T00:51:08;98000.84;;;0.47;100.00
75650;BME280;64245;51.282;22.494;2023-02-02T00:53:34;98008.25;;;0.66;100.00
75650;BME280;64245;51.282;22.494;2023-02-02T00:56:00;98007.41;;;0.65;100.00
75650;BME280;64245;51.282;22.494;2023-02-02T00:58:26;98002.00;;;0.67;99.86
75650;BME280;64245;51.282;22.494;2023-02-02T01:00:51;97980.31;;;0.62;100.00
75650;BME280;64245;51.282;22.494;2023-02-02T01:03:17;97988.47;;;0.59;100.00
75650;BME280;64245;51.282;22.494;2023-02-02T01:05:42;97964.28;;;0.52;100.00
75650;BME280;64245;51.282;22.494;2023-02-02T01:08:08;97967.75;;;0.53;100.00
75650;BME280;64245;51.282;22.494;2023-02-02T01:10:34;97983.34;;;0.68;100.00
75650;BME280;64245;51.282;22.494;2023-02-02T01:13:02;97987.94;;;0.78;100.00
75650;BME280;64245;51.282;22.494;2023-02-02T01:15:28;97971.16;;;0.66;100.00
75650;BME280;64245;51.282;22.494;2023-02-02T01:17:55;97971.69;;;0.71;100.00
75650;BME280;64245;51.282;22.494;2023-02-02T01:20:22;97963.09;;;0.56;100.00
75650;BME280;64245;51.282;22.494;2023-02-02T01:22:48;97953.44;;;0.55;100.00
75650;BME280;64245;51.282;22.494;2023-02-02T01:25:14;97951.78;;;0.65;100.00
75650;BME280;64245;51.282;22.494;2023-02-02T01:27:40;97974.09;;;0.74;100.00
75650;BME280;64245;51.282;22.494;2023-02-02T01:30:06;97969.88;;;0.72;100.00
75650;BME280;64245;51.282;22.494;2023-02-02T01:32:32;97970.97;;;0.80;100.00
75650;BME280;64245;51.282;22.494;2023-02-02T01:34:58;97977.09;;;0.81;100.00
75650;BME280;64245;51.282;22.494;2023-02-02T01:37:24;97972.66;;;0.81;99.76
75650;BME280;64245;51.282;22.494;2023-02-02T01:39:49;97950.72;;;0.68;99.73
75650;BME280;64245;51.282;22.494;2023-02-02T01:42:19;97970.84;;;0.71;100.00
75650;BME280;64245;51.282;22.494;2023-02-02T01:47:21;97949.03;;;0.67;100.00
75650;BME280;64245;51.282;22.494;2023-02-02T01:49:47;97966.59;;;0.68;100.00
75650;BME280;64245;51.282;22.494;2023-02-02T01:52:16;97970.22;;;0.78;100.00
75650;BME280;64245;51.282;22.494;2023-02-02T01:54:48;97970.22;;;0.78;100.00
75650;BME280;64245;51.282;22.494;2023-02-02T01:57:21;97967.00;;;0.75;100.00
75650;BME280;64245;51.282;22.494;2023-02-02T01:59:48;97954.31;;;0.67;100.00
75650;BME280;64245;51.282;22.494;2023-02-02T02:02:16;97972.03;;;0.78;100.00
75650;BME280;64245;51.282;22.494;2023-02-02T02:04:42;97967.47;;;0.80;100.00
75650;BME280;64245;51.282;22.494;2023-02-02T02:07:08;97947.56;;;0.63;100.00
75650;BME280;64245;51.282;22.494;2023-02-02T02:09:34;97950.81;;;0.66;100.00
75650;BME280;64245;51.282;22.494;2023-02-02T02:12:00;97955.28;;;0.77;100.00
75650;BME280;64245;51.282;22.494;2023-02-02T02:14:26;97958.44;;;0.82;100.00
75650;BME280;64245;51.282;22.494;2023-02-02T02:23:46;97970.28;;;0.89;100.00
75650;BME280;64245;51.282;22.494;2023-02-02T02:29:48;97959.34;;;0.94;100.00
75650;BME280;64245;51.282;22.494;2023-02-02T02:32:45;97971.69;;;0.82;100.00
75650;BME280;64245;51.282;22.494;2023-02-02T02:35:26;97973.66;;;0.91;100.00
75650;BME280;64245;51.282;22.494;2023-02-02T02:40:45;97978.84;;;0.93;99.84
75650;BME280;64245;51.282;22.494;2023-02-02T02:43:17;97974.63;;;1.01;99.00
75650;BME280;64245;51.282;22.494;2023-02-02T02:45:45;97974.13;;;0.96;99.26
75650;BME280;64245;51.282;22.494;2023-02-02T02:48:11;97946.03;;;0.83;99.17
75650;BME280;64245;51.282;22.494;2023-02-02T02:50:37;97968.72;;;0.98;99.18
75650;BME280;64245;51.282;22.494;2023-02-02T02:53:05;97975.03;;;1.08;98.53
75650;BME280;64245;51.282;22.494;2023-02-02T02:55:45;97980.91;;;1.00;99.34
75650;BME280;64245;51.282;22.494;2023-02-02T02:58:20;97955.13;;;0.91;98.74
75650;BME280;64245;51.282;22.494;2023-02-02T03:01:09;97970.06;;;0.92;99.27
75650;BME280;64245;51.282;22.494;2023-02-02T03:03:48;97970.75;;;0.83;99.97
75650;BME280;64245;51.282;22.494;2023-02-02T03:06:28;97991.63;;;0.99;100.00
75650;BME280;64245;51.282;22.494;2023-02-02T03:09:02;97985.72;;;0.95;99.32
75650;BME280;64245;51.282;22.494;2023-02-02T03:11:30;97961.44;;;0.78;99.53
75650;BME280;64245;51.282;22.494;2023-02-02T03:13:56;97989.44;;;0.93;99.62
75650;BME280;64245;51.282;22.494;2023-02-02T03:16:23;97975.50;;;0.67;99.88
75650;BME280;64245;51.282;22.494;2023-02-02T03:18:48;97962.03;;;0.70;100.00
75650;BME280;64245;51.282;22.494;2023-02-02T03:21:14;97982.50;;;0.68;100.00
75650;BME280;64245;51.282;22.494;2023-02-02T03:23:39;97967.53;;;0.56;100.00
75650;BME280;64245;51.282;22.494;2023-02-02T03:26:06;97972.47;;;0.60;100.00
75650;BME280;64245;51.282;22.494;2023-02-02T03:28:31;97972.25;;;0.63;100.00
75650;BME280;64245;51.282;22.494;2023-02-02T03:30:59;97982.91;;;0.75;100.00
75650;BME280;64245;51.282;22.494;2023-02-02T03:33:26;97993.75;;;0.83;100.00
75650;BME280;64245;51.282;22.494;2023-02-02T03:35:52;97984.44;;;0.77;100.00
75650;BME280;64245;51.282;22.494;2023-02-02T03:38:18;97976.16;;;0.82;99.76
75650;BME280;64245;51.282;22.494;2023-02-02T03:40:44;97970.75;;;0.83;99.06
75650;BME280;64245;51.282;22.494;2023-02-02T03:43:09;97987.88;;;0.90;99.67
75650;BME280;64245;51.282;22.494;2023-02-02T03:45:35;97975.41;;;0.80;99.58
75650;BME280;64245;51.282;22.494;2023-02-02T03:48:04;97969.66;;;0.75;99.26
75650;BME280;64245;51.282;22.494;2023-02-02T03:50:31;97969.78;;;0.84;99.47
75650;BME280;64245;51.282;22.494;2023-02-02T03:52:57;97985.22;;;0.90;99.58
75650;BME280;64245;51.282;22.494;2023-02-02T03:55:22;97974.34;;;0.82;99.57
75650;BME280;64245;51.282;22.494;2023-02-02T03:57:48;97983.19;;;0.94;99.68
75650;BME280;64245;51.282;22.494;2023-02-02T04:00:14;97979.22;;;0.99;99.31
75650;BME280;64245;51.282;22.494;2023-02-02T04:02:40;97978.75;;;0.94;99.52
75650;BME280;64245;51.282;22.494;2023-02-02T04:05:06;97975.78;;;0.75;99.51
75650;BME280;64245;51.282;22.494;2023-02-02T04:07:32;97980.84;;;0.78;99.50
75650;BME280;64245;51.282;22.494;2023-02-02T04:09:58;97959.16;;;0.73;99.04
75650;BME280;64245;51.282;22.494;2023-02-02T04:12:23;97976.63;;;0.76;99.67
75650;BME280;64245;51.282;22.494;2023-02-02T04:14:49;97977.66;;;0.62;99.67
75650;BME280;64245;51.282;22.494;2023-02-02T04:17:14;97974.28;;;0.60;100.00
75650;BME280;64245;51.282;22.494;2023-02-02T04:19:40;97960.44;;;0.56;100.00
75650;BME280;64245;51.282;22.494;2023-02-02T04:22:06;97955.41;;;0.41;100.00
75650;BME280;64245;51.282;22.494;2023-02-02T04:24:32;97958.81;;;0.43;100.00
75650;BME280;64245;51.282;22.494;2023-02-02T04:26:57;97977.31;;;0.66;100.00
75650;BME280;64245;51.282;22.494;2023-02-02T04:29:23;97968.59;;;0.53;100.00
75650;BME280;64245;51.282;22.494;2023-02-02T04:31:50;97982.22;;;0.60;100.00
75650;BME280;64245;51.282;22.494;2023-02-02T04:34:16;97971.25;;;0.53;100.00
75650;BME280;64245;51.282;22.494;2023-02-02T04:36:42;97980.41;;;0.60;100.00
75650;BME280;64245;51.282;22.494;2023-02-02T04:39:10;98002.00;;;0.67;100.00
75650;BME280;64245;51.282;22.494;2023-02-02T04:41:36;98001.03;;;0.57;100.00
75650;BME280;64245;51.282;22.494;2023-02-02T04:44:01;97986.78;;;0.58;100.00
75650;BME280;64245;51.282;22.494;2023-02-02T04:46:28;97983.25;;;0.46;100.00
75650;BME280;64245;51.282;22.494;2023-02-02T04:48:54;97991.09;;;0.48;100.00
75650;BME280;64245;51.282;22.494;2023-02-02T04:51:19;97993.81;;;0.35;100.00
75650;BME280;64245;51.282;22.494;2023-02-02T04:53:45;97995.31;;;0.26;100.00
75650;BME280;64245;51.282;22.494;2023-02-02T04:56:13;98018.13;;;0.40;100.00
75650;BME280;64245;51.282;22.494;2023-02-02T04:58:40;98005.97;;;0.38;100.00
75650;BME280;64245;51.282;22.494;2023-02-02T05:01:10;98006.00;;;0.25;100.00
75650;BME280;64245;51.282;22.494;2023-02-02T05:03:37;98028.97;;;0.37;100.00
75650;BME280;64245;51.282;22.494;2023-02-02T05:06:03;98023.38;;;0.29;100.00
75650;BME280;64245;51.282;22.494;2023-02-02T05:08:29;98030.94;;;0.46;100.00
75650;BME280;64245;51.282;22.494;2023-02-02T05:10:55;98005.25;;;0.36;100.00
75650;BME280;64245;51.282;22.494;2023-02-02T05:13:21;98025.06;;;0.54;100.00
75650;BME280;64245;51.282;22.494;2023-02-02T05:15:47;98034.94;;;0.52;100.00
75650;BME280;64245;51.282;22.494;2023-02-02T05:18:13;98018.00;;;0.42;100.00
75650;BME280;64245;51.282;22.494;2023-02-02T05:20:38;98032.19;;;0.53;100.00
75650;BME280;64245;51.282;22.494;2023-02-02T05:23:04;98018.81;;;0.55;100.00
75650;BME280;64245;51.282;22.494;2023-02-02T05:25:30;98032.63;;;0.71;100.00
75650;BME280;64245;51.282;22.494;2023-02-02T05:27:55;98039.00;;;0.80;100.00
75650;BME280;64245;51.282;22.494;2023-02-02T05:30:21;98036.47;;;0.78;100.00
75650;BME280;64245;51.282;22.494;2023-02-02T05:32:47;98034.09;;;0.75;99.87
75650;BME280;64245;51.282;22.494;2023-02-02T05:35:12;98042.50;;;0.80;100.00
75650;BME280;64245;51.282;22.494;2023-02-02T05:37:38;98027.88;;;0.63;100.00
75650;BME280;64245;51.282;22.494;2023-02-02T05:40:04;98033.97;;;0.77;100.00
75650;BME280;64245;51.282;22.494;2023-02-02T05:42:29;98053.47;;;0.76;100.00
75650;BME280;64245;51.282;22.494;2023-02-02T05:44:55;98052.88;;;0.83;100.00
75650;BME280;64245;51.282;22.494;2023-02-02T05:47:21;98062.31;;;0.87;99.84
75650;BME280;64245;51.282;22.494;2023-02-02T05:49:48;98052.03;;;0.83;100.00
75650;BME280;64245;51.282;22.494;2023-02-02T05:52:17;98055.66;;;0.82;99.71
75650;BME280;64245;51.282;22.494;2023-02-02T05:54:43;98064.13;;;0.87;99.50
75650;BME280;64245;51.282;22.494;2023-02-02T05:57:09;98066.13;;;0.83;99.78
75650;BME280;64245;51.282;22.494;2023-02-02T05:59:35;98044.78;;;0.74;99.94
75650;BME280;64245;51.282;22.494;2023-02-02T06:02:01;98047.16;;;0.65;99.57
75650;BME280;64245;51.282;22.494;2023-02-02T06:04:26;98065.91;;;0.86;99.57
75650;BME280;64245;51.282;22.494;2023-02-02T06:06:52;98051.19;;;0.82;99.42
75650;BME280;64245;51.282;22.494;2023-02-02T06:09:17;98061.88;;;0.93;99.12
75650;BME280;64245;51.282;22.494;2023-02-02T06:11:44;98066.31;;;0.93;99.30
75650;BME280;64245;51.282;22.494;2023-02-02T06:14:09;98057.47;;;0.81;99.16
75650;BME280;64245;51.282;22.494;2023-02-02T06:16:35;98055.75;;;0.80;99.43
75650;BME280;64245;51.282;22.494;2023-02-02T06:19:00;98069.44;;;0.98;98.50
75650;BME280;64245;51.282;22.494;2023-02-02T06:21:26;98067.00;;;0.84;99.28
75650;BME280;64245;51.282;22.494;2023-02-02T06:23:56;98056.16;;;0.87;99.18
75650;BME280;64245;51.282;22.494;2023-02-02T06:26:22;98074.84;;;0.96;99.16
75650;BME280;64245;51.282;22.494;2023-02-02T06:28:50;98071.22;;;0.86;99.37
75650;BME280;64245;51.282;22.494;2023-02-02T06:31:17;98077.03;;;0.91;98.99
75650;BME280;64245;51.282;22.494;2023-02-02T06:33:47;98074.75;;;0.98;99.46
75650;BME280;64245;51.282;22.494;2023-02-02T06:36:13;98062.53;;;0.84;99.31
75650;BME280;64245;51.282;22.494;2023-02-02T06:38:39;98069.09;;;0.91;99.21
75650;BME280;64245;51.282;22.494;2023-02-02T06:41:05;98075.13;;;0.93;99.00
75650;BME280;64245;51.282;22.494;2023-02-02T06:43:31;98089.22;;;0.94;98.75
75650;BME280;64245;51.282;22.494;2023-02-02T06:45:57;98062.72;;;0.94;98.04
75650;BME280;64245;51.282;22.494;2023-02-02T06:48:23;98082.25;;;1.04;98.31
75650;BME280;64245;51.282;22.494;2023-02-02T06:50:49;98072.81;;;1.00;97.84
75650;BME280;64245;51.282;22.494;2023-02-02T06:53:14;98083.22;;;1.03;98.02
75650;BME280;64245;51.282;22.494;2023-02-02T06:58:19;98075.59;;;0.98;98.32
75650;BME280;64245;51.282;22.494;2023-02-02T07:00:44;98084.78;;;1.06;98.15
75650;BME280;64245;51.282;22.494;2023-02-02T07:03:10;98070.53;;;0.95;98.46
75650;BME280;64245;51.282;22.494;2023-02-02T07:05:36;98082.13;;;1.06;98.42
75650;BME280;64245;51.282;22.494;2023-02-02T07:08:03;98084.69;;;1.07;97.86
75650;BME280;64245;51.282;22.494;2023-02-02T07:10:28;98061.97;;;0.92;98.13
75650;BME280;64245;51.282;22.494;2023-02-02T07:12:54;98090.81;;;1.08;97.89
75650;BME280;64245;51.282;22.494;2023-02-02T07:15:20;98075.38;;;1.01;98.29
75650;BME280;64245;51.282;22.494;2023-02-02T07:17:46;98093.59;;;1.06;98.58
75650;BME280;64245;51.282;22.494;2023-02-02T07:20:12;98088.72;;;1.24;98.02
75650;BME280;64245;51.282;22.494;2023-02-02T07:22:39;98095.94;;;1.22;97.20
75650;BME280;64245;51.282;22.494;2023-02-02T07:25:06;98076.53;;;1.21;96.09
75650;BME280;64245;51.282;22.494;2023-02-02T07:27:32;98064.34;;;1.19;95.47
75650;BME280;64245;51.282;22.494;2023-02-02T07:29:58;98084.75;;;1.29;95.20
75650;BME280;64245;51.282;22.494;2023-02-02T07:32:24;98073.28;;;1.29;95.28
75650;BME280;64245;51.282;22.494;2023-02-02T07:34:49;98075.94;;;1.29;95.50
75650;BME280;64245;51.282;22.494;2023-02-02T07:37:15;98086.56;;;1.40;95.37
75650;BME280;64245;51.282;22.494;2023-02-02T07:39:40;98085.84;;;1.38;95.83
75650;BME280;64245;51.282;22.494;2023-02-02T07:42:12;98098.31;;;1.49;94.94
75650;BME280;64245;51.282;22.494;2023-02-02T07:44:37;98108.31;;;1.45;94.82
75650;BME280;64245;51.282;22.494;2023-02-02T07:47:03;98102.88;;;1.58;94.80
75650;BME280;64245;51.282;22.494;2023-02-02T07:49:29;98107.84;;;1.51;95.58
75650;BME280;64245;51.282;22.494;2023-02-02T07:51:55;98092.16;;;1.48;94.87
75650;BME280;64245;51.282;22.494;2023-02-02T07:54:21;98099.38;;;1.57;94.14
75650;BME280;64245;51.282;22.494;2023-02-02T07:56:46;98098.31;;;1.49;93.49
75650;BME280;64245;51.282;22.494;2023-02-02T07:59:12;98098.41;;;1.47;93.48
75650;BME280;64245;51.282;22.494;2023-02-02T08:01:37;98105.81;;;1.66;94.62
75650;BME280;64245;51.282;22.494;2023-02-02T08:04:03;98115.06;;;1.49;95.07
75650;BME280;64245;51.282;22.494;2023-02-02T08:06:32;98119.66;;;1.58;93.84
75650;BME280;64245;51.282;22.494;2023-02-02T08:08:59;98116.53;;;1.53;95.60
75650;BME280;64245;51.282;22.494;2023-02-02T08:11:25;98105.53;;;1.47;94.51
75650;BME280;64245;51.282;22.494;2023-02-02T08:13:57;98116.53;;;1.64;94.59
75650;BME280;64245;51.282;22.494;2023-02-02T08:16:23;98117.28;;;1.66;93.75
75650;BME280;64245;51.282;22.494;2023-02-02T08:18:50;98113.66;;;1.67;93.54
75650;BME280;64245;51.282;22.494;2023-02-02T08:21:16;98106.03;;;1.63;93.19
75650;BME280;64245;51.282;22.494;2023-02-02T08:23:43;98084.13;;;1.72;93.47
75650;BME280;64245;51.282;22.494;2023-02-02T08:26:21;98093.28;;;1.79;93.79
75650;BME280;64245;51.282;22.494;2023-02-02T08:29:13;98111.88;;;1.90;93.84
75650;BME280;64245;51.282;22.494;2023-02-02T08:31:42;98108.59;;;1.98;92.20
75650;BME280;64245;51.282;22.494;2023-02-02T08:34:09;98104.50;;;1.94;91.60
75650;BME280;64245;51.282;22.494;2023-02-02T08:36:35;98078.34;;;1.89;92.13
75650;BME280;64245;51.282;22.494;2023-02-02T08:39:04;98102.97;;;1.91;91.26
75650;BME280;64245;51.282;22.494;2023-02-02T08:41:30;98095.47;;;1.96;91.80
75650;BME280;64245;51.282;22.494;2023-02-02T08:43:57;98096.53;;;1.83;91.80
75650;BME280;64245;51.282;22.494;2023-02-02T08:46:23;98104.03;;;2.00;92.62
75650;BME280;64245;51.282;22.494;2023-02-02T08:48:49;98085.56;;;1.98;91.79
75650;BME280;64245;51.282;22.494;2023-02-02T08:51:17;98102.81;;;2.04;92.26
75650;BME280;64245;51.282;22.494;2023-02-02T08:53:44;98103.44;;;2.07;91.45
75650;BME280;64245;51.282;22.494;2023-02-02T08:56:13;98103.19;;;2.11;91.97
75650;BME280;64245;51.282;22.494;2023-02-02T08:58:46;98109.59;;;2.08;92.32
75650;BME280;64245;51.282;22.494;2023-02-02T09:01:17;98112.13;;;1.87;93.32
75650;BME280;64245;51.282;22.494;2023-02-02T09:03:44;98107.53;;;1.89;94.29
75650;BME280;64245;51.282;22.494;2023-02-02T09:06:12;98103.66;;;1.93;94.43
75650;BME280;64245;51.282;22.494;2023-02-02T09:08:39;98105.34;;;1.94;95.96
75650;BME280;64245;51.282;22.494;2023-02-02T09:11:06;98099.56;;;1.89;95.09
75650;BME280;64245;51.282;22.494;2023-02-02T09:13:33;98096.41;;;1.84;96.05
75650;BME280;64245;51.282;22.494;2023-02-02T09:16:04;98105.59;;;1.80;96.14
75650;BME280;64245;51.282;22.494;2023-02-02T09:18:31;98100.84;;;1.61;97.08
75650;BME280;64245;51.282;22.494;2023-02-02T09:21:02;98089.88;;;1.66;96.73
75650;BME280;64245;51.282;22.494;2023-02-02T09:23:29;98094.47;;;1.53;97.47
75650;BME280;64245;51.282;22.494;2023-02-02T09:26:00;98085.38;;;1.33;97.59
75650;BME280;64245;51.282;22.494;2023-02-02T09:28:32;98085.16;;;1.47;97.14
75650;BME280;64245;51.282;22.494;2023-02-02T09:31:00;98070.53;;;1.42;97.75
75650;BME280;64245;51.282;22.494;2023-02-02T09:33:26;98056.09;;;1.46;97.76
75650;BME280;64245;51.282;22.494;2023-02-02T09:35:51;98087.25;;;1.66;97.29
75650;BME280;64245;51.282;22.494;2023-02-02T09:38:17;98092.53;;;1.77;97.46
75650;BME280;64245;51.282;22.494;2023-02-02T09:40:42;98091.59;;;1.67;97.31
75650;BME280;64245;51.282;22.494;2023-02-02T09:49:08;98083.31;;;1.36;98.36
75650;BME280;64245;51.282;22.494;2023-02-02T09:51:41;98084.44;;;1.45;98.70
75650;BME280;64245;51.282;22.494;2023-02-02T09:54:20;98074.78;;;1.44;98.46
75650;BME280;64245;51.282;22.494;2023-02-02T09:56:51;98068.00;;;1.40;98.60
75650;BME280;64245;51.282;22.494;2023-02-02T09:59:23;98068.84;;;1.41;98.88
75650;BME280;64245;51.282;22.494;2023-02-02T10:01:53;98053.91;;;1.39;98.83
75650;BME280;64245;51.282;22.494;2023-02-02T10:04:22;98066.19;;;1.41;99.00
75650;BME280;64245;51.282;22.494;2023-02-02T10:06:55;98063.03;;;1.35;98.93
75650;BME280;64245;51.282;22.494;2023-02-02T10:14:33;98043.78;;;1.45;98.43
75650;BME280;64245;51.282;22.494;2023-02-02T10:17:04;98051.25;;;1.39;99.62
75650;BME280;64245;51.282;22.494;2023-02-02T10:19:35;98043.53;;;1.36;98.81
75650;BME280;64245;51.282;22.494;2023-02-02T10:22:22;98045.47;;;1.46;98.15
75650;BME280;64245;51.282;22.494;2023-02-02T10:24:50;98038.34;;;1.35;97.83
75650;BME280;64245;51.282;22.494;2023-02-02T10:27:25;98045.94;;;1.39;98.30
75650;BME280;64245;51.282;22.494;2023-02-02T10:29:59;98033.41;;;1.30;98.35
75650;BME280;64245;51.282;22.494;2023-02-02T10:32:41;98041.03;;;1.57;98.46
75650;BME280;64245;51.282;22.494;2023-02-02T10:35:33;98027.91;;;1.67;98.48
75650;BME280;64245;51.282;22.494;2023-02-02T10:43:53;98012.06;;;1.32;98.17
75650;BME280;64245;51.282;22.494;2023-02-02T10:46:41;98028.25;;;1.51;97.61
75650;BME280;64245;51.282;22.494;2023-02-02T10:51:53;98029.78;;;1.43;98.96
75650;BME280;64245;51.282;22.494;2023-02-02T10:54:31;98025.94;;;1.58;98.81
75650;BME280;64245;51.282;22.494;2023-02-02T10:57:01;98004.69;;;1.35;98.26
75650;BME280;64245;51.282;22.494;2023-02-02T10:59:40;98008.69;;;1.41;97.92
75650;BME280;64245;51.282;22.494;2023-02-02T11:02:10;98014.38;;;1.48;98.15
75650;BME280;64245;51.282;22.494;2023-02-02T11:04:35;98006.53;;;1.46;97.95
75650;BME280;64245;51.282;22.494;2023-02-02T11:07:20;98007.25;;;1.59;97.18
75650;BME280;64245;51.282;22.494;2023-02-02T11:09:46;98008.00;;;1.72;97.30
75650;BME280;64245;51.282;22.494;2023-02-02T11:12:19;98002.31;;;1.66;97.20
75650;BME280;64245;51.282;22.494;2023-02-02T11:14:55;98016.78;;;1.84;98.07
75650;BME280;64245;51.282;22.494;2023-02-02T11:17:24;98000.38;;;1.90;96.50
75650;BME280;64245;51.282;22.494;2023-02-02T11:19:51;97992.53;;;1.89;96.95
75650;BME280;64245;51.282;22.494;2023-02-02T11:22:35;97989.63;;;1.81;96.31
75650;BME280;64245;51.282;22.494;2023-02-02T11:25:06;98017.75;;;2.05;97.34
75650;BME280;64245;51.282;22.494;2023-02-02T11:27:46;98015.47;;;1.90;96.43
75650;BME280;64245;51.282;22.494;2023-02-02T11:30:33;98006.19;;;1.84;96.94
75650;BME280;64245;51.282;22.494;2023-02-02T11:35:56;98011.59;;;1.94;96.95
75650;BME280;64245;51.282;22.494;2023-02-02T11:38:22;98008.09;;;1.82;97.32
75650;BME280;64245;51.282;22.494;2023-02-02T11:41:00;98028.97;;;1.98;97.38
75650;BME280;64245;51.282;22.494;2023-02-02T11:46:18;98018.72;;;2.04;97.49
75650;BME280;64245;51.282;22.494;2023-02-02T11:48:58;98015.53;;;2.22;96.60
75650;BME280;64245;51.282;22.494;2023-02-02T11:51:25;98019.69;;;1.92;97.24
75650;BME280;64245;51.282;22.494;2023-02-02T11:54:05;98027.59;;;2.15;97.92
75650;BME280;64245;51.282;22.494;2023-02-02T11:56:34;98018.59;;;2.06;96.74
75650;BME280;64245;51.282;22.494;2023-02-02T11:59:01;98017.38;;;2.10;96.55
75650;BME280;64245;51.282;22.494;2023-02-02T12:01:31;98034.63;;;2.16;96.58
75650;BME280;64245;51.282;22.494;2023-02-02T12:03:59;98029.91;;;2.19;95.77
75650;BME280;64245;51.282;22.494;2023-02-02T12:09:00;98003.03;;;2.01;96.27
75650;BME280;64245;51.282;22.494;2023-02-02T12:14:04;98032.56;;;2.19;96.08
75650;BME280;64245;51.282;22.494;2023-02-02T12:17:06;98031.09;;;2.15;96.46
75650;BME280;64245;51.282;22.494;2023-02-02T12:20:07;98030.91;;;2.07;95.87
75650;BME280;64245;51.282;22.494;2023-02-02T12:27:50;98024.63;;;1.97;95.83
75650;BME280;64245;51.282;22.494;2023-02-02T12:30:36;98049.34;;;2.31;96.13
75650;BME280;64245;51.282;22.494;2023-02-02T12:33:22;98045.13;;;2.06;96.11
75650;BME280;64245;51.282;22.494;2023-02-02T12:38:52;98046.81;;;1.96;96.44
75650;BME280;64245;51.282;22.494;2023-02-02T12:51:21;98067.22;;;1.95;95.66
75650;BME280;64245;51.282;22.494;2023-02-02T13:04:24;98095.09;;;1.90;96.45
75650;BME280;64245;51.282;22.494;2023-02-02T13:09:44;98091.47;;;1.80;96.26
75650;BME280;64245;51.282;22.494;2023-02-02T13:12:18;98097.00;;;1.77;95.67
75650;BME280;64245;51.282;22.494;2023-02-02T13:14:50;98105.19;;;1.73;95.98
75650;BME280;64245;51.282;22.494;2023-02-02T13:17:22;98097.25;;;1.62;96.68
75650;BME280;64245;51.282;22.494;2023-02-02T13:19:55;98119.44;;;1.61;96.40
75650;BME280;64245;51.282;22.494;2023-02-02T13:22:32;98117.00;;;1.58;96.70
75650;BME280;64245;51.282;22.494;2023-02-02T13:25:00;98101.75;;;1.38;98.07
75650;BME280;64245;51.282;22.494;2023-02-02T13:27:28;98108.41;;;1.44;98.03
75650;BME280;64245;51.282;22.494;2023-02-02T13:30:26;98129.78;;;1.53;98.54
75650;BME280;64245;51.282;22.494;2023-02-02T13:32:57;98135.69;;;1.57;98.07
75650;BME280;64245;51.282;22.494;2023-02-02T13:36:05;98117.22;;;1.44;98.25
75650;BME280;64245;51.282;22.494;2023-02-02T13:38:33;98132.81;;;1.60;98.00
75650;BME280;64245;51.282;22.494;2023-02-02T13:41:06;98149.50;;;1.73;98.07
75650;BME280;64245;51.282;22.494;2023-02-02T13:46:23;98148.78;;;1.71;97.55
75650;BME280;64245;51.282;22.494;2023-02-02T14:01:51;98159.56;;;1.57;97.36
75650;BME280;64245;51.282;22.494;2023-02-02T14:04:23;98170.56;;;1.52;97.76
75650;BME280;64245;51.282;22.494;2023-02-02T14:06:56;98186.16;;;1.68;97.21
75650;BME280;64245;51.282;22.494;2023-02-02T14:09:32;98184.47;;;1.78;97.14
75650;BME280;64245;51.282;22.494;2023-02-02T14:12:05;98187.63;;;1.72;97.25
75650;BME280;64245;51.282;22.494;2023-02-02T14:14:32;98193.09;;;1.58;97.13
75650;BME280;64245;51.282;22.494;2023-02-02T14:32:01;98234.47;;;1.60;97.45
75650;BME280;64245;51.282;22.494;2023-02-02T14:34:44;98211.56;;;1.35;97.83
75650;BME280;64245;51.282;22.494;2023-02-02T14:40:02;98247.97;;;1.57;98.15
75650;BME280;64245;51.282;22.494;2023-02-02T14:45:40;98256.91;;;1.56;97.11
75650;BME280;64245;51.282;22.494;2023-02-02T14:50:45;98254.75;;;1.37;98.71
75650;BME280;64245;51.282;22.494;2023-02-02T14:53:18;98281.13;;;1.52;98.48
75650;BME280;64245;51.282;22.494;2023-02-02T14:55:51;98273.41;;;1.49;98.55
75650;BME280;64245;51.282;22.494;2023-02-02T14:58:26;98287.00;;;1.44;97.96
75650;BME280;64245;51.282;22.494;2023-02-02T15:01:10;98303.66;;;1.46;99.25
75650;BME280;64245;51.282;22.494;2023-02-02T15:22:55;98351.16;;;1.13;99.35
75650;BME280;64245;51.282;22.494;2023-02-02T15:25:40;98376.41;;;1.06;99.94
75650;BME280;64245;51.282;22.494;2023-02-02T15:28:31;98376.09;;;0.97;99.83